sensor_id;sensor_type;location;lat;lon;timestamp;P1;durP1;ratioP1;P2;durP2;ratioP2
2652;SDS011;1336;48.692;9.144;2023-12-07T06:00:05;11.93;;;10.77;;
2652;SDS011;1336;48.692;9.144;2023-12-07T06:01:01;11.73;;;10.45;;
2652;SDS011;1336;48.692;9.144;2023-12-07T06:01:52;11.35;;;9.85;;
2652;SDS011;1336;48.692;9.144;2023-12-07T06:02:43;12.48;;;11.07;;
2652;SDS011;1336;48.692;9.144;2023-12-07T06:03:35;12.07;;;10.95;;
2652;SDS011;1336;48.692;9.144;2023-12-07T06:04:26;10.85;;;9.80;;
2652;SDS011;1336;48.692;9.144;2023-12-07T06:05:19;11.95;;;10.82;;
2652;SDS011;1336;48.692;9.144;2023-12-07T06:06:11;11.40;;;10.20;;
2652;SDS011;1336;48.692;9.144;2023-12-07T06:07:02;11.75;;;10.65;;
2652;SDS011;1336;48.692;9.144;2023-12-07T06:07:54;11.50;;;10.40;;
2652;SDS011;1336;48.692;9.144;2023-12-07T06:08:46;11.88;;;10.68;;
2652;SDS011;1336;48.692;9.144;2023-12-07T06:09:37;11.38;;;10.27;;
2652;SDS011;1336;48.692;9.144;2023-12-07T06:10:29;11.43;;;10.32;;
2652;SDS011;1336;48.692;9.144;2023-12-07T06:11:20;11.60;;;10.40;;
2652;SDS011;1336;48.692;9.144;2023-12-07T06:12:11;12.27;;;10.60;;
2652;SDS011;1336;48.692;9.144;2023-12-07T06:13:03;11.48;;;10.13;;
2652;SDS011;1336;48.692;9.144;2023-12-07T06:13:55;11.50;;;10.40;;
2652;SDS011;1336;48.692;9.144;2023-12-07T06:14:46;12.02;;;10.80;;
2652;SDS011;1336;48.692;9.144;2023-12-07T06:15:39;11.68;;;10.27;;
2652;SDS011;1336;48.692;9.144;2023-12-07T06:16:30;10.85;;;9.82;;
2652;SDS011;1336;48.692;9.144;2023-12-07T06:17:22;10.55;;;9.55;;
2652;SDS011;1336;48.692;9.144;2023-12-07T06:18:14;10.45;;;9.43;;
2652;SDS011;1336;48.692;9.144;2023-12-07T06:19:06;11.80;;;9.90;;
2652;SDS011;1336;48.692;9.144;2023-12-07T06:19:58;10.50;;;9.40;;
2652;SDS011;1336;48.692;9.144;2023-12-07T06:20:49;11.43;;;10.20;;
2652;SDS011;1336;48.692;9.144;2023-12-07T06:21:40;11.70;;;10.50;;
2652;SDS011;1336;48.692;9.144;2023-12-07T06:22:32;10.88;;;9.77;;
2652;SDS011;1336;48.692;9.144;2023-12-07T06:23:23;11.15;;;10.05;;
2652;SDS011;1336;48.692;9.144;2023-12-07T06:24:15;10.50;;;9.18;;
2652;SDS011;1336;48.692;9.144;2023-12-07T06:25:07;11.23;;;10.07;;
2652;SDS011;1336;48.692;9.144;2023-12-07T06:25:59;10.40;;;9.40;;
2652;SDS011;1336;48.692;9.144;2023-12-07T06:26:52;11.65;;;9.95;;
2652;SDS011;1336;48.692;9.144;2023-12-07T06:27:45;12.13;;;10.90;;
2652;SDS011;1336;48.692;9.144;2023-12-07T06:28:36;12.13;;;10.93;;
2652;SDS011;1336;48.692;9.144;2023-12-07T06:29:27;11.50;;;10.30;;
2652;SDS011;1336;48.692;9.144;2023-12-07T06:30:19;11.98;;;10.73;;
2652;SDS011;1336;48.692;9.144;2023-12-07T06:31:12;10.75;;;9.55;;
2652;SDS011;1336;48.692;9.144;2023-12-07T06:32:05;11.05;;;10.00;;
2652;SDS011;1336;48.692;9.144;2023-12-07T06:32:57;11.88;;;10.02;;
2652;SDS011;1336;48.692;9.144;2023-12-07T06:33:48;11.52;;;10.35;;
2652;SDS011;1336;48.692;9.144;2023-12-07T06:34:40;12.27;;;11.00;;
2652;SDS011;1336;48.692;9.144;2023-12-07T06:35:32;12.68;;;11.48;;
2652;SDS011;1336;48.692;9.144;2023-12-07T06:36:25;11.45;;;10.35;;
2652;SDS011;1336;48.692;9.144;2023-12-07T06:37:17;12.43;;;10.85;;
2652;SDS011;1336;48.692;9.144;2023-12-07T06:38:10;12.90;;;11.60;;
2652;SDS011;1336;48.692;9.144;2023-12-07T06:39:02;9.98;;;8.98;;
2652;SDS011;1336;48.692;9.144;2023-12-07T06:39:53;13.38;;;10.40;;
2652;SDS011;1336;48.692;9.144;2023-12-07T06:40:44;11.98;;;10.85;;
2652;SDS011;1336;48.692;9.144;2023-12-07T06:41:36;11.45;;;10.35;;
2652;SDS011;1336;48.692;9.144;2023-12-07T06:42:27;11.48;;;10.38;;
2652;SDS011;1336;48.692;9.144;2023-12-07T06:43:19;11.70;;;9.95;;
2652;SDS011;1336;48.692;9.144;2023-12-07T06:44:10;11.77;;;10.40;;
2652;SDS011;1336;48.692;9.144;2023-12-07T06:45:02;11.90;;;10.43;;
2652;SDS011;1336;48.692;9.144;2023-12-07T06:45:54;11.57;;;10.40;;
2652;SDS011;1336;48.692;9.144;2023-12-07T06:46:47;13.57;;;11.30;;
2652;SDS011;1336;48.692;9.144;2023-12-07T06:47:39;12.23;;;10.70;;
2652;SDS011;1336;48.692;9.144;2023-12-07T06:48:33;11.75;;;10.18;;
2652;SDS011;1336;48.692;9.144;2023-12-07T06:49:25;12.43;;;9.93;;
2652;SDS011;1336;48.692;9.144;2023-12-07T06:50:16;10.73;;;9.73;;
2652;SDS011;1336;48.692;9.144;2023-12-07T06:51:08;11.20;;;10.00;;
2652;SDS011;1336;48.692;9.144;2023-12-07T06:51:59;10.98;;;9.80;;
2652;SDS011;1336;48.692;9.144;2023-12-07T06:52:50;10.77;;;9.68;;
2652;SDS011;1336;48.692;9.144;2023-12-07T06:53:42;10.35;;;9.32;;
2652;SDS011;1336;48.692;9.144;2023-12-07T06:54:33;11.50;;;10.38;;
2652;SDS011;1336;48.692;9.144;2023-12-07T06:55:25;11.35;;;10.35;;
2652;SDS011;1336;48.692;9.144;2023-12-07T06:56:17;11.43;;;9.80;;
2652;SDS011;1336;48.692;9.144;2023-12-07T06:57:08;10.70;;;9.60;;
2652;SDS011;1336;48.692;9.144;2023-12-07T06:58:00;11.48;;;10.35;;
2652;SDS011;1336;48.692;9.144;2023-12-07T06:58:51;11.88;;;10.77;;
2652;SDS011;1336;48.692;9.144;2023-12-07T06:59:43;12.48;;;10.65;;
2652;SDS011;1336;48.692;9.144;2023-12-07T07:00:34;11.73;;;10.63;;
2652;SDS011;1336;48.692;9.144;2023-12-07T07:01:26;11.10;;;10.00;;
2652;SDS011;1336;48.692;9.144;2023-12-07T07:02:19;11.48;;;10.30;;
2652;SDS011;1336;48.692;9.144;2023-12-07T07:03:10;11.25;;;10.00;;
2652;SDS011;1336;48.692;9.144;2023-12-07T07:04:01;11.27;;;10.18;;
2652;SDS011;1336;48.692;9.144;2023-12-07T07:04:54;11.43;;;10.23;;
2652;SDS011;1336;48.692;9.144;2023-12-07T07:05:45;11.15;;;10.05;;
2652;SDS011;1336;48.692;9.144;2023-12-07T07:06:36;11.07;;;9.95;;
2652;SDS011;1336;48.692;9.144;2023-12-07T07:07:28;13.82;;;10.90;;
2652;SDS011;1336;48.692;9.144;2023-12-07T07:08:21;11.32;;;10.23;;
2652;SDS011;1336;48.692;9.144;2023-12-07T07:09:12;12.43;;;10.73;;
2652;SDS011;1336;48.692;9.144;2023-12-07T07:10:06;12.27;;;10.93;;
2652;SDS011;1336;48.692;9.144;2023-12-07T07:11:01;11.98;;;10.50;;
2652;SDS011;1336;48.692;9.144;2023-12-07T07:11:55;11.27;;;10.18;;
2652;SDS011;1336;48.692;9.144;2023-12-07T07:12:46;10.98;;;9.70;;
2652;SDS011;1336;48.692;9.144;2023-12-07T07:13:37;11.77;;;10.60;;
2652;SDS011;1336;48.692;9.144;2023-12-07T07:14:29;11.25;;;10.15;;
2652;SDS011;1336;48.692;9.144;2023-12-07T07:15:20;11.77;;;10.52;;
2652;SDS011;1336;48.692;9.144;2023-12-07T07:16:15;11.45;;;10.35;;
2652;SDS011;1336;48.692;9.144;2023-12-07T07:17:06;12.05;;;10.85;;
2652;SDS011;1336;48.692;9.144;2023-12-07T07:18:00;12.35;;;11.00;;
2652;SDS011;1336;48.692;9.144;2023-12-07T07:18:51;12.13;;;10.93;;
2652;SDS011;1336;48.692;9.144;2023-12-07T07:19:43;11.60;;;10.25;;
2652;SDS011;1336;48.692;9.144;2023-12-07T07:20:34;12.93;;;11.63;;
2652;SDS011;1336;48.692;9.144;2023-12-07T07:21:26;14.93;;;12.90;;
2652;SDS011;1336;48.692;9.144;2023-12-07T07:22:18;13.85;;;12.40;;
2652;SDS011;1336;48.692;9.144;2023-12-07T07:23:09;16.65;;;14.30;;
2652;SDS011;1336;48.692;9.144;2023-12-07T07:24:01;13.75;;;12.48;;
2652;SDS011;1336;48.692;9.144;2023-12-07T07:24:52;13.82;;;12.43;;
2652;SDS011;1336;48.692;9.144;2023-12-07T07:25:44;13.57;;;12.18;;
2652;SDS011;1336;48.692;9.144;2023-12-07T07:26:35;13.52;;;12.23;;
2652;SDS011;1336;48.692;9.144;2023-12-07T07:27:28;11.95;;;10.75;;
2652;SDS011;1336;48.692;9.144;2023-12-07T07:28:19;11.07;;;9.98;;
2652;SDS011;1336;48.692;9.144;2023-12-07T07:29:10;11.63;;;10.50;;
2652;SDS011;1336;48.692;9.144;2023-12-07T07:30:03;12.25;;;10.48;;
2652;SDS011;1336;48.692;9.144;2023-12-07T07:30:54;11.68;;;10.57;;
2652;SDS011;1336;48.692;9.144;2023-12-07T07:31:46;11.90;;;10.10;;
2652;SDS011;1336;48.692;9.144;2023-12-07T07:32:37;10.55;;;9.55;;
2652;SDS011;1336;48.692;9.144;2023-12-07T07:33:30;10.77;;;9.77;;
2652;SDS011;1336;48.692;9.144;2023-12-07T07:34:22;12.48;;;11.18;;
2652;SDS011;1336;48.692;9.144;2023-12-07T07:35:14;12.40;;;11.10;;
2652;SDS011;1336;48.692;9.144;2023-12-07T07:36:05;15.10;;;12.30;;
2652;SDS011;1336;48.692;9.144;2023-12-07T07:36:57;20.77;;;15.50;;
2652;SDS011;1336;48.692;9.144;2023-12-07T07:37:48;24.00;;;17.00;;
2652;SDS011;1336;48.692;9.144;2023-12-07T07:38:39;32.55;;;20.65;;
2652;SDS011;1336;48.692;9.144;2023-12-07T07:39:31;29.67;;;20.27;;
2652;SDS011;1336;48.692;9.144;2023-12-07T07:40:22;34.33;;;23.17;;
2652;SDS011;1336;48.692;9.144;2023-12-07T07:41:14;32.05;;;22.42;;
2652;SDS011;1336;48.692;9.144;2023-12-07T07:42:05;29.83;;;21.75;;
2652;SDS011;1336;48.692;9.144;2023-12-07T07:42:57;26.65;;;19.90;;
2652;SDS011;1336;48.692;9.144;2023-12-07T07:43:49;21.42;;;17.08;;
2652;SDS011;1336;48.692;9.144;2023-12-07T07:44:41;22.45;;;17.88;;
2652;SDS011;1336;48.692;9.144;2023-12-07T07:45:32;19.75;;;15.65;;
2652;SDS011;1336;48.692;9.144;2023-12-07T07:46:25;17.10;;;14.52;;
2652;SDS011;1336;48.692;9.144;2023-12-07T07:47:16;15.32;;;13.38;;
2652;SDS011;1336;48.692;9.144;2023-12-07T07:48:07;15.02;;;12.10;;
2652;SDS011;1336;48.692;9.144;2023-12-07T07:49:00;14.57;;;12.13;;
2652;SDS011;1336;48.692;9.144;2023-12-07T07:49:54;12.60;;;10.98;;
2652;SDS011;1336;48.692;9.144;2023-12-07T07:50:45;11.50;;;10.40;;
2652;SDS011;1336;48.692;9.144;2023-12-07T07:51:37;11.02;;;10.02;;
2652;SDS011;1336;48.692;9.144;2023-12-07T07:52:28;10.90;;;9.90;;
2652;SDS011;1336;48.692;9.144;2023-12-07T07:53:19;11.00;;;9.45;;
2652;SDS011;1336;48.692;9.144;2023-12-07T07:54:11;10.93;;;9.88;;
2652;SDS011;1336;48.692;9.144;2023-12-07T07:55:03;10.45;;;9.45;;
2652;SDS011;1336;48.692;9.144;2023-12-07T07:55:54;11.45;;;10.25;;
2652;SDS011;1336;48.692;9.144;2023-12-07T07:56:46;10.88;;;9.77;;
2652;SDS011;1336;48.692;9.144;2023-12-07T07:57:37;10.30;;;9.30;;
2652;SDS011;1336;48.692;9.144;2023-12-07T07:58:28;10.13;;;9.23;;
2652;SDS011;1336;48.692;9.144;2023-12-07T07:59:21;10.57;;;9.57;;
2652;SDS011;1336;48.692;9.144;2023-12-07T08:00:12;11.00;;;9.90;;
2652;SDS011;1336;48.692;9.144;2023-12-07T08:01:03;10.20;;;9.20;;
2652;SDS011;1336;48.692;9.144;2023-12-07T08:01:55;9.90;;;8.90;;
2652;SDS011;1336;48.692;9.144;2023-12-07T08:02:47;11.57;;;10.32;;
2652;SDS011;1336;48.692;9.144;2023-12-07T08:03:38;11.07;;;8.88;;
2652;SDS011;1336;48.692;9.144;2023-12-07T08:04:31;9.88;;;8.98;;
2652;SDS011;1336;48.692;9.144;2023-12-07T08:05:23;10.57;;;9.48;;
2652;SDS011;1336;48.692;9.144;2023-12-07T08:06:14;12.00;;;9.82;;
2652;SDS011;1336;48.692;9.144;2023-12-07T08:07:06;9.52;;;8.63;;
2652;SDS011;1336;48.692;9.144;2023-12-07T08:07:57;11.90;;;10.77;;
2652;SDS011;1336;48.692;9.144;2023-12-07T08:08:49;10.20;;;9.20;;
2652;SDS011;1336;48.692;9.144;2023-12-07T08:09:41;10.75;;;9.60;;
2652;SDS011;1336;48.692;9.144;2023-12-07T08:10:32;11.40;;;10.30;;
2652;SDS011;1336;48.692;9.144;2023-12-07T08:11:24;10.88;;;9.77;;
2652;SDS011;1336;48.692;9.144;2023-12-07T08:12:15;11.90;;;10.80;;
2652;SDS011;1336;48.692;9.144;2023-12-07T08:13:06;11.68;;;10.57;;
2652;SDS011;1336;48.692;9.144;2023-12-07T08:13:58;12.20;;;11.00;;
2652;SDS011;1336;48.692;9.144;2023-12-07T08:14:49;12.38;;;10.73;;
2652;SDS011;1336;48.692;9.144;2023-12-07T08:15:40;12.70;;;11.30;;
2652;SDS011;1336;48.692;9.144;2023-12-07T08:16:32;12.98;;;11.63;;
2652;SDS011;1336;48.692;9.144;2023-12-07T08:17:23;12.80;;;11.43;;
2652;SDS011;1336;48.692;9.144;2023-12-07T08:18:16;12.50;;;11.30;;
2652;SDS011;1336;48.692;9.144;2023-12-07T08:19:08;12.10;;;10.90;;
2652;SDS011;1336;48.692;9.144;2023-12-07T08:20:00;12.70;;;11.40;;
2652;SDS011;1336;48.692;9.144;2023-12-07T08:20:51;13.27;;;11.98;;
2652;SDS011;1336;48.692;9.144;2023-12-07T08:21:43;13.57;;;12.18;;
2652;SDS011;1336;48.692;9.144;2023-12-07T08:22:35;14.38;;;12.88;;
2652;SDS011;1336;48.692;9.144;2023-12-07T08:23:26;13.35;;;12.05;;
2652;SDS011;1336;48.692;9.144;2023-12-07T08:24:18;14.85;;;13.27;;
2652;SDS011;1336;48.692;9.144;2023-12-07T08:25:09;16.67;;;14.95;;
2652;SDS011;1336;48.692;9.144;2023-12-07T08:26:02;18.73;;;16.70;;
2652;SDS011;1336;48.692;9.144;2023-12-07T08:26:53;17.00;;;15.18;;
2652;SDS011;1336;48.692;9.144;2023-12-07T08:27:44;16.30;;;14.60;;
2652;SDS011;1336;48.692;9.144;2023-12-07T08:28:36;18.75;;;14.50;;
2652;SDS011;1336;48.692;9.144;2023-12-07T08:29:27;18.45;;;14.55;;
2652;SDS011;1336;48.692;9.144;2023-12-07T08:30:18;15.43;;;13.77;;
2652;SDS011;1336;48.692;9.144;2023-12-07T08:31:10;14.90;;;13.40;;
2652;SDS011;1336;48.692;9.144;2023-12-07T08:32:02;14.70;;;12.55;;
2652;SDS011;1336;48.692;9.144;2023-12-07T08:32:53;13.57;;;12.27;;
2652;SDS011;1336;48.692;9.144;2023-12-07T08:33:45;14.55;;;13.15;;
2652;SDS011;1336;48.692;9.144;2023-12-07T08:34:36;13.98;;;12.48;;
2652;SDS011;1336;48.692;9.144;2023-12-07T08:35:28;15.45;;;13.77;;
2652;SDS011;1336;48.692;9.144;2023-12-07T08:36:20;13.90;;;12.35;;
2652;SDS011;1336;48.692;9.144;2023-12-07T08:37:11;12.38;;;11.05;;
2652;SDS011;1336;48.692;9.144;2023-12-07T08:38:03;13.90;;;12.50;;
2652;SDS011;1336;48.692;9.144;2023-12-07T08:38:56;13.88;;;12.57;;
2652;SDS011;1336;48.692;9.144;2023-12-07T08:39:47;14.13;;;12.73;;
2652;SDS011;1336;48.692;9.144;2023-12-07T08:40:39;14.02;;;12.65;;
2652;SDS011;1336;48.692;9.144;2023-12-07T08:41:32;14.18;;;12.60;;
2652;SDS011;1336;48.692;9.144;2023-12-07T08:42:24;13.73;;;12.38;;
2652;SDS011;1336;48.692;9.144;2023-12-07T08:43:18;13.73;;;12.43;;
2652;SDS011;1336;48.692;9.144;2023-12-07T08:44:10;14.07;;;12.50;;
2652;SDS011;1336;48.692;9.144;2023-12-07T08:45:01;13.43;;;12.15;;
2652;SDS011;1336;48.692;9.144;2023-12-07T08:45:52;13.15;;;11.77;;
2652;SDS011;1336;48.692;9.144;2023-12-07T08:46:44;16.40;;;12.48;;
2652;SDS011;1336;48.692;9.144;2023-12-07T08:47:36;13.23;;;11.73;;
2652;SDS011;1336;48.692;9.144;2023-12-07T08:48:27;14.35;;;12.85;;
2652;SDS011;1336;48.692;9.144;2023-12-07T08:49:19;13.30;;;12.00;;
2652;SDS011;1336;48.692;9.144;2023-12-07T08:50:10;12.98;;;11.63;;
2652;SDS011;1336;48.692;9.144;2023-12-07T08:51:03;12.95;;;11.70;;
2652;SDS011;1336;48.692;9.144;2023-12-07T08:51:55;11.90;;;10.80;;
2652;SDS011;1336;48.692;9.144;2023-12-07T08:52:46;11.63;;;10.50;;
2652;SDS011;1336;48.692;9.144;2023-12-07T08:53:38;12.65;;;11.35;;
2652;SDS011;1336;48.692;9.144;2023-12-07T08:54:29;12.57;;;11.38;;
2652;SDS011;1336;48.692;9.144;2023-12-07T08:55:20;11.55;;;10.40;;
2652;SDS011;1336;48.692;9.144;2023-12-07T08:56:12;13.02;;;11.48;;
2652;SDS011;1336;48.692;9.144;2023-12-07T08:57:04;11.15;;;10.13;;
2652;SDS011;1336;48.692;9.144;2023-12-07T08:57:55;11.85;;;10.77;;
2652;SDS011;1336;48.692;9.144;2023-12-07T08:58:47;11.35;;;10.35;;
2652;SDS011;1336;48.692;9.144;2023-12-07T08:59:38;11.10;;;10.10;;
2652;SDS011;1336;48.692;9.144;2023-12-07T09:00:30;12.10;;;10.90;;
2652;SDS011;1336;48.692;9.144;2023-12-07T09:01:22;11.52;;;10.45;;
2652;SDS011;1336;48.692;9.144;2023-12-07T09:02:13;12.27;;;11.00;;
2652;SDS011;1336;48.692;9.144;2023-12-07T09:03:05;11.23;;;10.23;;
2652;SDS011;1336;48.692;9.144;2023-12-07T09:03:57;12.00;;;10.88;;
2652;SDS011;1336;48.692;9.144;2023-12-07T09:04:49;11.20;;;10.15;;
2652;SDS011;1336;48.692;9.144;2023-12-07T09:05:41;10.02;;;9.13;;
2652;SDS011;1336;48.692;9.144;2023-12-07T09:06:35;10.73;;;9.75;;
2652;SDS011;1336;48.692;9.144;2023-12-07T09:07:27;10.88;;;9.88;;
2652;SDS011;1336;48.692;9.144;2023-12-07T09:08:18;10.38;;;9.48;;
2652;SDS011;1336;48.692;9.144;2023-12-07T09:09:10;13.40;;;10.13;;
2652;SDS011;1336;48.692;9.144;2023-12-07T09:10:02;13.45;;;9.93;;
2652;SDS011;1336;48.692;9.144;2023-12-07T09:10:53;10.77;;;9.75;;
2652;SDS011;1336;48.692;9.144;2023-12-07T09:11:45;11.23;;;10.18;;
2652;SDS011;1336;48.692;9.144;2023-12-07T09:12:36;11.85;;;9.07;;
2652;SDS011;1336;48.692;9.144;2023-12-07T09:13:28;10.38;;;8.90;;
2652;SDS011;1336;48.692;9.144;2023-12-07T09:14:19;10.40;;;9.40;;
2652;SDS011;1336;48.692;9.144;2023-12-07T09:15:12;13.38;;;9.48;;
2652;SDS011;1336;48.692;9.144;2023-12-07T09:16:03;10.18;;;9.27;;
2652;SDS011;1336;48.692;9.144;2023-12-07T09:16:54;9.70;;;8.80;;
2652;SDS011;1336;48.692;9.144;2023-12-07T09:17:47;12.40;;;10.13;;
2652;SDS011;1336;48.692;9.144;2023-12-07T09:18:40;10.93;;;9.82;;
2652;SDS011;1336;48.692;9.144;2023-12-07T09:19:32;10.82;;;9.25;;
2652;SDS011;1336;48.692;9.144;2023-12-07T09:20:24;9.68;;;8.77;;
2652;SDS011;1336;48.692;9.144;2023-12-07T09:21:15;10.68;;;9.55;;
2652;SDS011;1336;48.692;9.144;2023-12-07T09:22:08;11.45;;;9.77;;
2652;SDS011;1336;48.692;9.144;2023-12-07T09:23:00;9.85;;;8.85;;
2652;SDS011;1336;48.692;9.144;2023-12-07T09:23:53;9.95;;;8.95;;
2652;SDS011;1336;48.692;9.144;2023-12-07T09:24:44;9.45;;;8.57;;
2652;SDS011;1336;48.692;9.144;2023-12-07T09:25:36;10.35;;;8.80;;
2652;SDS011;1336;48.692;9.144;2023-12-07T09:26:28;9.82;;;8.93;;
2652;SDS011;1336;48.692;9.144;2023-12-07T09:27:19;10.27;;;9.35;;
2652;SDS011;1336;48.692;9.144;2023-12-07T09:28:10;10.40;;;9.35;;
2652;SDS011;1336;48.692;9.144;2023-12-07T09:29:02;9.75;;;8.75;;
2652;SDS011;1336;48.692;9.144;2023-12-07T09:29:53;9.88;;;8.88;;
2652;SDS011;1336;48.692;9.144;2023-12-07T09:30:45;9.88;;;8.95;;
2652;SDS011;1336;48.692;9.144;2023-12-07T09:31:36;10.95;;;9.30;;
2652;SDS011;1336;48.692;9.144;2023-12-07T09:32:28;9.52;;;8.63;;
2652;SDS011;1336;48.692;9.144;2023-12-07T09:33:19;9.10;;;8.23;;
2652;SDS011;1336;48.692;9.144;2023-12-07T09:34:11;9.60;;;8.70;;
2652;SDS011;1336;48.692;9.144;2023-12-07T09:35:07;10.00;;;9.00;;
2652;SDS011;1336;48.692;9.144;2023-12-07T09:36:05;9.18;;;8.30;;
2652;SDS011;1336;48.692;9.144;2023-12-07T09:37:08;10.20;;;9.20;;
2652;SDS011;1336;48.692;9.144;2023-12-07T09:38:00;8.60;;;7.75;;
2652;SDS011;1336;48.692;9.144;2023-12-07T09:38:52;9.18;;;8.20;;
2652;SDS011;1336;48.692;9.144;2023-12-07T09:39:43;9.40;;;8.50;;
2652;SDS011;1336;48.692;9.144;2023-12-07T09:40:34;8.40;;;7.60;;
2652;SDS011;1336;48.692;9.144;2023-12-07T09:41:26;8.80;;;7.50;;
2652;SDS011;1336;48.692;9.144;2023-12-07T09:42:18;8.88;;;7.97;;
2652;SDS011;1336;48.692;9.144;2023-12-07T09:43:09;10.00;;;8.25;;
2652;SDS011;1336;48.692;9.144;2023-12-07T09:44:02;8.20;;;7.40;;
2652;SDS011;1336;48.692;9.144;2023-12-07T09:44:54;9.23;;;8.20;;
2652;SDS011;1336;48.692;9.144;2023-12-07T09:45:45;7.70;;;6.97;;
2652;SDS011;1336;48.692;9.144;2023-12-07T09:46:37;7.93;;;7.22;;
2652;SDS011;1336;48.692;9.144;2023-12-07T09:47:28;8.00;;;7.30;;
2652;SDS011;1336;48.692;9.144;2023-12-07T09:48:21;8.10;;;7.30;;
2652;SDS011;1336;48.692;9.144;2023-12-07T09:49:14;9.10;;;8.20;;
2652;SDS011;1336;48.692;9.144;2023-12-07T09:50:06;7.57;;;6.93;;
2652;SDS011;1336;48.692;9.144;2023-12-07T09:50:59;9.60;;;7.55;;
2652;SDS011;1336;48.692;9.144;2023-12-07T09:51:51;9.00;;;7.60;;
2652;SDS011;1336;48.692;9.144;2023-12-07T09:52:47;8.90;;;8.10;;
2652;SDS011;1336;48.692;9.144;2023-12-07T09:53:38;10.05;;;8.18;;
2652;SDS011;1336;48.692;9.144;2023-12-07T09:54:30;9.30;;;8.43;;
2652;SDS011;1336;48.692;9.144;2023-12-07T09:55:23;8.35;;;7.50;;
2652;SDS011;1336;48.692;9.144;2023-12-07T09:56:14;9.45;;;8.43;;
2652;SDS011;1336;48.692;9.144;2023-12-07T09:57:07;9.98;;;8.10;;
2652;SDS011;1336;48.692;9.144;2023-12-07T09:57:59;8.60;;;7.75;;
2652;SDS011;1336;48.692;9.144;2023-12-07T09:58:50;9.73;;;8.75;;
2652;SDS011;1336;48.692;9.144;2023-12-07T09:59:42;8.15;;;7.35;;
2652;SDS011;1336;48.692;9.144;2023-12-07T10:00:33;9.52;;;8.52;;
2652;SDS011;1336;48.692;9.144;2023-12-07T10:01:27;8.43;;;7.63;;
2652;SDS011;1336;48.692;9.144;2023-12-07T10:02:20;9.65;;;8.75;;
2652;SDS011;1336;48.692;9.144;2023-12-07T10:03:19;9.80;;;8.80;;
2652;SDS011;1336;48.692;9.144;2023-12-07T10:04:15;9.90;;;8.90;;
2652;SDS011;1336;48.692;9.144;2023-12-07T10:05:08;13.23;;;8.70;;
2652;SDS011;1336;48.692;9.144;2023-12-07T10:06:00;10.90;;;9.75;;
2652;SDS011;1336;48.692;9.144;2023-12-07T10:06:52;9.25;;;8.35;;
2652;SDS011;1336;48.692;9.144;2023-12-07T10:07:46;9.88;;;8.93;;
2652;SDS011;1336;48.692;9.144;2023-12-07T10:08:38;9.75;;;8.60;;
2652;SDS011;1336;48.692;9.144;2023-12-07T10:09:30;11.27;;;9.02;;
2652;SDS011;1336;48.692;9.144;2023-12-07T10:10:21;9.23;;;8.40;;
2652;SDS011;1336;48.692;9.144;2023-12-07T10:11:12;10.30;;;9.30;;
2652;SDS011;1336;48.692;9.144;2023-12-07T10:12:05;10.65;;;9.65;;
2652;SDS011;1336;48.692;9.144;2023-12-07T10:12:58;8.90;;;8.10;;
2652;SDS011;1336;48.692;9.144;2023-12-07T10:13:49;9.80;;;8.57;;
2652;SDS011;1336;48.692;9.144;2023-12-07T10:14:42;35.60;;;26.20;;
2652;SDS011;1336;48.692;9.144;2023-12-07T10:15:33;15.88;;;12.82;;
2652;SDS011;1336;48.692;9.144;2023-12-07T10:16:24;10.25;;;9.20;;
2652;SDS011;1336;48.692;9.144;2023-12-07T10:17:16;9.77;;;8.75;;
2652;SDS011;1336;48.692;9.144;2023-12-07T10:18:07;8.90;;;8.10;;
2652;SDS011;1336;48.692;9.144;2023-12-07T10:18:59;9.32;;;8.43;;
2652;SDS011;1336;48.692;9.144;2023-12-07T10:20:07;9.23;;;8.38;;
2652;SDS011;1336;48.692;9.144;2023-12-07T10:20:59;12.07;;;8.85;;
2652;SDS011;1336;48.692;9.144;2023-12-07T10:21:50;9.90;;;9.00;;
2652;SDS011;1336;48.692;9.144;2023-12-07T10:22:42;10.13;;;9.10;;
2652;SDS011;1336;48.692;9.144;2023-12-07T10:23:35;9.50;;;8.50;;
2652;SDS011;1336;48.692;9.144;2023-12-07T10:24:26;9.98;;;8.98;;
2652;SDS011;1336;48.692;9.144;2023-12-07T10:25:20;9.43;;;8.52;;
2652;SDS011;1336;48.692;9.144;2023-12-07T10:26:12;9.35;;;8.45;;
2652;SDS011;1336;48.692;9.144;2023-12-07T10:27:06;10.48;;;9.38;;
2652;SDS011;1336;48.692;9.144;2023-12-07T10:27:57;9.55;;;8.52;;
2652;SDS011;1336;48.692;9.144;2023-12-07T10:28:48;9.77;;;8.77;;
2652;SDS011;1336;48.692;9.144;2023-12-07T10:29:44;11.40;;;9.60;;
2652;SDS011;1336;48.692;9.144;2023-12-07T10:30:35;9.93;;;8.93;;
2652;SDS011;1336;48.692;9.144;2023-12-07T10:31:27;10.15;;;9.15;;
2652;SDS011;1336;48.692;9.144;2023-12-07T10:32:21;9.60;;;8.68;;
2652;SDS011;1336;48.692;9.144;2023-12-07T10:33:12;9.68;;;8.77;;
2652;SDS011;1336;48.692;9.144;2023-12-07T10:34:04;9.70;;;8.75;;
2652;SDS011;1336;48.692;9.144;2023-12-07T10:34:55;9.35;;;8.40;;
2652;SDS011;1336;48.692;9.144;2023-12-07T10:35:48;10.05;;;8.43;;
2652;SDS011;1336;48.692;9.144;2023-12-07T10:36:40;9.50;;;8.60;;
2652;SDS011;1336;48.692;9.144;2023-12-07T10:37:32;11.65;;;8.02;;
2652;SDS011;1336;48.692;9.144;2023-12-07T10:38:23;9.93;;;8.93;;
2652;SDS011;1336;48.692;9.144;2023-12-07T10:39:16;9.23;;;8.35;;
2652;SDS011;1336;48.692;9.144;2023-12-07T10:40:08;12.43;;;9.15;;
2652;SDS011;1336;48.692;9.144;2023-12-07T10:41:03;9.30;;;8.13;;
2652;SDS011;1336;48.692;9.144;2023-12-07T10:41:56;8.50;;;7.70;;
2652;SDS011;1336;48.692;9.144;2023-12-07T10:42:53;8.65;;;7.40;;
2652;SDS011;1336;48.692;9.144;2023-12-07T10:43:48;8.45;;;7.65;;
2652;SDS011;1336;48.692;9.144;2023-12-07T10:44:41;7.80;;;7.00;;
2652;SDS011;1336;48.692;9.144;2023-12-07T10:45:33;8.20;;;7.40;;
2652;SDS011;1336;48.692;9.144;2023-12-07T10:46:25;7.95;;;7.05;;
2652;SDS011;1336;48.692;9.144;2023-12-07T10:47:16;9.13;;;7.72;;
2652;SDS011;1336;48.692;9.144;2023-12-07T10:48:09;9.80;;;7.30;;
2652;SDS011;1336;48.692;9.144;2023-12-07T10:49:01;8.18;;;7.38;;
2652;SDS011;1336;48.692;9.144;2023-12-07T10:49:55;8.27;;;7.07;;
2652;SDS011;1336;48.692;9.144;2023-12-07T10:50:49;7.53;;;6.82;;
2652;SDS011;1336;48.692;9.144;2023-12-07T10:51:45;9.85;;;7.05;;
2652;SDS011;1336;48.692;9.144;2023-12-07T10:52:43;8.70;;;7.03;;
2652;SDS011;1336;48.692;9.144;2023-12-07T10:53:37;7.93;;;6.68;;
2652;SDS011;1336;48.692;9.144;2023-12-07T10:54:33;7.22;;;6.60;;
2652;SDS011;1336;48.692;9.144;2023-12-07T10:55:29;8.80;;;6.93;;
2652;SDS011;1336;48.692;9.144;2023-12-07T10:56:28;7.40;;;6.63;;
2652;SDS011;1336;48.692;9.144;2023-12-07T10:57:21;8.23;;;7.18;;
2652;SDS011;1336;48.692;9.144;2023-12-07T10:58:13;7.75;;;6.95;;
2652;SDS011;1336;48.692;9.144;2023-12-07T10:59:05;7.90;;;6.70;;
2652;SDS011;1336;48.692;9.144;2023-12-07T10:59:57;6.22;;;5.63;;
2652;SDS011;1336;48.692;9.144;2023-12-07T11:00:48;7.63;;;6.00;;
2652;SDS011;1336;48.692;9.144;2023-12-07T11:01:40;9.27;;;6.03;;
2652;SDS011;1336;48.692;9.144;2023-12-07T11:02:32;6.68;;;6.07;;
2652;SDS011;1336;48.692;9.144;2023-12-07T11:03:24;6.28;;;5.68;;
2652;SDS011;1336;48.692;9.144;2023-12-07T11:04:16;6.18;;;5.63;;
2652;SDS011;1336;48.692;9.144;2023-12-07T11:05:08;7.35;;;5.90;;
2652;SDS011;1336;48.692;9.144;2023-12-07T11:06:00;6.97;;;6.28;;
2652;SDS011;1336;48.692;9.144;2023-12-07T11:06:54;6.20;;;5.70;;
2652;SDS011;1336;48.692;9.144;2023-12-07T11:07:50;7.15;;;5.72;;
2652;SDS011;1336;48.692;9.144;2023-12-07T11:08:46;5.25;;;4.80;;
2652;SDS011;1336;48.692;9.144;2023-12-07T11:09:42;5.90;;;5.35;;
2652;SDS011;1336;48.692;9.144;2023-12-07T11:10:39;5.72;;;5.22;;
2652;SDS011;1336;48.692;9.144;2023-12-07T11:11:36;5.45;;;4.72;;
2652;SDS011;1336;48.692;9.144;2023-12-07T11:12:31;5.55;;;5.03;;
2652;SDS011;1336;48.692;9.144;2023-12-07T11:13:24;5.47;;;4.85;;
2652;SDS011;1336;48.692;9.144;2023-12-07T11:14:17;5.50;;;5.00;;
2652;SDS011;1336;48.692;9.144;2023-12-07T11:15:10;5.60;;;5.10;;
2652;SDS011;1336;48.692;9.144;2023-12-07T11:16:01;5.88;;;4.80;;
2652;SDS011;1336;48.692;9.144;2023-12-07T11:16:53;7.28;;;5.32;;
2652;SDS011;1336;48.692;9.144;2023-12-07T11:17:51;5.40;;;4.90;;
2652;SDS011;1336;48.692;9.144;2023-12-07T11:18:43;6.45;;;4.93;;